• Join FlightAware (Why Join?)
  • Login
  • US Flag GB Flag 
12:31 EDT


 

Airport Tracker/Info


-or-


 

Live Flight TrackerFlight Track Log ✈ UAL4543 ✈ 23-Apr-2013 ✈ KEWR - KDSM

Flight Track Log - Related Links

Times and Time Zones

All times are in EDT time to prevent confusion due to time zone crossing. See the UAL4543 flight status page for this flight to view local times or setup timezone preferences in your user account.

Time Position Orientation Groundspeed Altitude Reporting Facility
EDT Latitude Longitude Course Direction KTS MPH feet Rate Location/Type
21:25 40.7333 -74.1500 288° West 183 211 2,500  Level New York TRACON
21:26 40.7500 -74.2167 288° West 261 300 5,000 2,820 Climbing New York TRACON
21:27 40.7667 -74.3167 282° West 265 305 8,200 2,820 Climbing New York TRACON
21:28 40.7918 -74.6383 284° West  Level FlightAware Approximate
21:28 40.7833 -74.4000 285° West 278 320 10,700  Level New York TRACON
21:29 40.8175 -74.7590 287° West  Level FlightAware Approximate
21:29 40.8000 -74.5167 281° West 323 372 12,300  Level New York TRACON
21:30 40.8452 -74.8791 287° West  Level FlightAware Approximate
21:30 40.8333 -74.6333 291° West 340 391 14,400  Level New York TRACON
21:31 40.8739 -74.9956 288° West  Level FlightAware Approximate
21:32 40.8483 -74.7597 279° West 357 411 16,200  Level New York Center
21:33 40.8706 -74.9036 282° West 357 411 17,900 1,440 Climbing New York Center
21:34 40.8539 -75.0206 259° West 357 411 19,200 1,680 Climbing New York Center
21:35 40.8367 -75.1486 260° West 357 411 21,300 1,980 Climbing New York Center
21:36 40.8128 -75.2842 257° West 372 428 23,300 1,980 Climbing New York Center
21:37 40.7908 -75.4197 258° West 377 434 25,300 1,740 Climbing New York Center
21:38 40.7706 -75.5636 260° West 377 434 26,800 1,320 Climbing New York Center
21:39 40.7486 -75.6961 258° West 377 434 28,000 1,140 Climbing New York Center
21:40 40.7281 -75.8344 259° West 377 434 29,200 1,620 Climbing New York Center
21:41 40.7078 -75.9642 258° West 377 434 31,200 1,980 Climbing New York Center
21:42 40.6900 -76.0861 259° West 361 415 33,100 1,620 Climbing New York Center
21:43 40.6719 -76.2050 259° West 349 402 34,600 1,140 Climbing New York Center
21:44 40.6728 -76.3203 271° West 330 380 35,400 360 Climbing New York Center
21:45 40.6944 -76.4397 283° West 322 371 35,400 -540 Level New York Center
21:46 40.7111 -76.5642 280° West 336 387 34,400 -720 Descending New York Center
21:47 40.7319 -76.6947 282° West 348 400 34,000 -240 Descending New York Center
21:48 40.7503 -76.8225 281° West 353 406 34,000  Level New York Center
21:49 40.7706 -76.9556 281° West 358 412 34,000  Level New York Center
21:50 40.7889 -77.0836 281° West 363 418 34,000  Level New York Center
21:51 40.8069 -77.2114 281° West 363 418 34,000  Level New York Center
21:52 40.8250 -77.3392 281° West 358 412 34,100  Climbing New York Center
21:53 40.8433 -77.4561 282° West 358 412 34,000 -60 Descending New York Center
21:55 40.8828 -77.7569 280° West 380 437 34,000  Level Cleveland Center
21:56 40.9028 -77.8964 281° West 385 443 34,000  Level Cleveland Center
21:57 40.9206 -78.0383 279° West 391 450 34,000  Level Cleveland Center
21:58 40.9383 -78.1753 280° West 391 450 34,000  Level Cleveland Center
21:59 40.9558 -78.3203 279° West 391 450 34,000  Level Cleveland Center
22:00 40.9750 -78.4600 280° West 391 450 34,000  Level Cleveland Center
22:01 40.9922 -78.5997 279° West 386 444 34,000  Level Cleveland Center
22:02 41.0092 -78.7422 279° West 386 444 34,000  Level Cleveland Center
22:03 41.0239 -78.8822 278° West 386 444 34,000  Level Cleveland Center
22:04 41.0406 -79.0250 279° West 386 444 34,000  Level Cleveland Center
22:05 41.0569 -79.1650 279° West 386 444 34,000  Level Cleveland Center
22:06 41.0733 -79.3106 279° West 392 451 34,000  Level Cleveland Center
22:07 41.0892 -79.4508 279° West 392 451 34,000  Level Cleveland Center
22:08 41.1053 -79.5911 279° West 392 451 34,000  Level Cleveland Center
22:09 41.1208 -79.7314 278° West 392 451 34,000  Level Cleveland Center
22:10 41.1367 -79.8911 278° West 387 445 34,000  Level Cleveland Center
22:11 41.1519 -80.0150 279° West 387 445 34,000  Level Cleveland Center
22:12 41.1669 -80.1528 278° West 387 445 34,000  Level Cleveland Center
22:13 41.1800 -80.2933 277° West 387 445 34,000  Level Cleveland Center
22:14 41.1947 -80.4397 278° West 387 445 34,000  Level Cleveland Center
22:15 41.2075 -80.5803 277° West 392 451 34,000  Level Cleveland Center
22:16 41.2219 -80.7239 278° West 392 451 34,000  Level Cleveland Center
22:17 41.2364 -80.8647 278° West 391 450 34,000  Level Cleveland Center
22:18 41.2506 -81.0083 278° West 391 450 34,000  Level Cleveland Center
22:19 41.2644 -81.1494 278° West 391 450 34,000  Level Cleveland Center
22:20 41.2803 -81.3069 278° West 391 450 34,000  Level Cleveland Center
22:21 41.2939 -81.4289 278° West 391 450 34,000  Level Cleveland Center
22:22 41.3094 -81.5894 277° West 391 450 34,100  Climbing Cleveland Center
22:23 41.3206 -81.7306 276° West 391 450 34,000  Descending Cleveland Center
22:24 41.3336 -81.8717 277° West 391 450 34,100  Climbing Cleveland Center
22:25 41.3464 -82.0158 277° West 391 450 34,000 -60 Descending Cleveland Center
22:26 41.3553 -82.1461 275° West 391 450 34,000  Level Cleveland Center
22:27 41.3636 -82.2875 275° West 383 441 34,000  Level Cleveland Center
22:28 41.3736 -82.4397 275° West 378 435 34,100  Climbing Cleveland Center
22:29 41.3797 -82.5728 274° West 372 428 34,000  Descending Cleveland Center
22:30 41.3878 -82.7086 275° West 372 428 34,100  Climbing Cleveland Center
22:31 41.3956 -82.8447 274° West 367 422 34,000  Descending Cleveland Center
22:32 41.4031 -82.9861 274° West 372 428 34,100 660 Climbing Cleveland Center
22:33 41.4106 -83.1192 274° West 372 428 35,400 900 Climbing Cleveland Center
22:34 41.4161 -83.2497 273° West 367 422 36,000 300 Climbing Cleveland Center
22:35 41.4231 -83.3883 274° West 367 422 36,000  Level Cleveland Center
22:36 41.4300 -83.5272 274° West 373 429 36,000  Level Cleveland Center
22:37 41.4369 -83.6661 274° West 379 436 36,000  Level Cleveland Center
22:38 41.4433 -83.8050 274° West 379 436 36,000  Level Cleveland Center
22:39 41.4478 -83.9408 273° West 379 436 36,000  Level Cleveland Center
22:40 41.4542 -84.0797 274° West 379 436 36,000  Level Cleveland Center
22:41 41.4603 -84.2158 273° West 379 436 36,000  Level Cleveland Center
22:42 41.4689 -84.3383 275° West 373 429 36,000  Level Cleveland Center
22:44 41.4814 -84.6661 273° West 370 426 36,000  Level Chicago Center
22:45 41.4881 -84.8289 273° West 368 423 36,000  Level Chicago Center
22:46 41.4925 -84.9631 273° West 364 419 36,000  Level Chicago Center
22:47 41.4969 -85.0989 273° West 366 421 36,000  Level Chicago Center
22:48 41.5014 -85.2350 273° West 365 420 36,000  Level Chicago Center
22:49 41.5058 -85.3736 272° West 367 422 36,000  Level Chicago Center
22:50 41.5097 -85.5119 272° West 366 421 36,000  Level Chicago Center
22:51 41.5142 -85.6458 273° West 359 413 36,000  Level Chicago Center
22:52 41.5178 -85.7792 272° West 358 412 36,000  Level Chicago Center
22:53 41.5214 -85.9125 272° West 358 412 36,000  Level Chicago Center
22:54 41.5250 -86.0456 272° West 359 413 36,000  Level Chicago Center
22:55 41.5275 -86.1781 271° West 358 412 36,000  Level Chicago Center
22:57 41.5297 -86.3108 271° West 358 412 36,000  Level Chicago Center
22:58 41.5333 -86.4717 272° West 359 413 36,000  Level Chicago Center
22:59 41.5347 -86.6061 271° West 362 417 36,000  Level Chicago Center
23:00 41.5369 -86.7306 271° West 361 415 36,000  Level Chicago Center
23:01 41.5375 -86.8636 270° West 360 414 36,000  Level Chicago Center
23:02 41.5389 -86.9981 271° West 363 418 36,000  Level Chicago Center
23:03 41.5408 -87.1572 271° West 361 415 36,000  Level Chicago Center
23:04 41.5425 -87.2911 271° West 362 417 36,000  Level Chicago Center
23:05 41.5428 -87.4253 270° West 363 418 36,000  Level Chicago Center
23:06 41.5444 -87.5575 271° West 362 417 36,000  Level Chicago Center
23:07 41.5447 -87.6922 270° West 365 420 36,000  Level Chicago Center
23:08 41.5453 -87.8242 270° West 361 415 36,000  Level Chicago Center
23:09 41.5456 -87.9556 270° West 361 415 36,000  Level Chicago Center
23:10 41.5467 -88.1106 271° West 361 415 36,000  Level Chicago Center
23:11 41.5467 -88.2406 270° West 360 414 36,000  Level Chicago Center
23:12 41.5467 -88.3703 270° West 356 410 36,000  Level Chicago Center
23:13 41.5472 -88.5011 270° West 356 410 36,000  Level Chicago Center
23:14 41.5475 -88.6311 270° West 355 409 36,000  Level Chicago Center
23:15 41.5481 -88.7614 270° West 353 406 36,000  Level Chicago Center
23:16 41.5478 -88.8939 270° West 358 412 36,000  Level Chicago Center
23:17 41.5486 -89.0475 270° West 348 400 36,000  Level Chicago Center
23:18 41.5483 -89.1775 270° West 352 405 36,000  Level Chicago Center
23:19 41.5483 -89.3069 270° West 351 404 36,000  Level Chicago Center
23:20 41.5514 -89.4356 272° West 350 403 36,000  Level Chicago Center
23:21 41.5533 -89.5675 271° West 349 402 36,000  Level Chicago Center
23:22 41.5550 -89.6958 271° West 348 400 36,000  Level Chicago Center
23:23 41.5567 -89.8239 271° West 347 399 36,000  Level Chicago Center
23:24 41.5594 -89.9500 272° West 343 395 36,000  Level Chicago Center
23:25 41.5603 -90.0781 271° West 345 397 36,000  Level Chicago Center
23:26 41.5608 -90.2036 270° West 341 392 36,000  Level Chicago Center
23:27 41.5606 -90.3322 270° West 347 399 36,000  Level Chicago Center
23:28 41.5622 -90.4542 271° West 334 384 36,000  Level Chicago Center
23:29 41.5631 -90.6039 270° West 337 388 36,000  Level Chicago Center
23:30 41.5633 -90.7225 270° West 337 388 36,000  Level Chicago Center
23:31 41.5633 -90.8472 270° West 338 389 36,000  Level Chicago Center
23:32 41.5628 -90.9753 270° West 344 396 36,000  Level Chicago Center
23:33 41.5633 -91.0994 270° West 338 389 36,000  Level Chicago Center
23:34 41.5631 -91.2264 270° West 342 394 36,000  Level Chicago Center
23:35 41.5633 -91.3531 270° West 343 395 36,000  Level Chicago Center
23:36 41.5636 -91.5019 270° West 338 389 36,000  Level Chicago Center
23:37 41.5617 -91.6272 269° West 339 390 36,000  Level Chicago Center
23:38 41.5617 -91.7456 270° West 328 377 36,000 -840 Level Chicago Center
23:39 41.5608 -91.8658 270° West 325 374 34,400 -2,460 Descending Chicago Center
23:40 41.5597 -91.9825 269° West 318 366 31,000 -3,180 Descending Chicago Center
23:41 41.5594 -92.0958 270° West 310 357 28,000 -3,000 Descending Chicago Center
23:42 41.5583 -92.2119 269° West 313 360 25,000 -3,000 Descending Chicago Center
23:43 41.5564 -92.3256 269° West 309 356 21,900 -2,940 Descending Chicago Center
23:44 41.5550 -92.4411 269° West 312 359 19,100 -2,400 Descending Chicago Center
23:45 41.5533 -92.5594 269° West 318 366 17,100 -2,040 Descending Chicago Center
23:46 41.5511 -92.6639 268° West 331 381 15,600 -1,980 Descending Minneapolis Center
23:47 41.5408 -92.7956 264° West 333 383 13,800 -1,860 Descending Minneapolis Center
23:48 41.5322 -92.9156 265° West 328 377 11,900 -1,680 Descending Minneapolis Center
23:49 41.5253 -93.0219 265° West 290 334 10,500 -1,800 Descending Minneapolis Center
23:50 41.5253 -93.0731 270° West 276 318 9,100 -2,280 Descending Minneapolis Center
23:50 41.5169 -93.1200 257° West 270 311 8,200 -2,220 Descending Minneapolis Center
23:51 41.5183 -93.1711 272° West 269 310 6,900 -2,040 Descending Minneapolis Center
23:51 41.5100 -93.2192 257° West 269 310 6,200 -1,980 Descending Minneapolis Center
23:52 41.5114 -93.2692 272° West 265 305 4,900 -1,800 Descending Minneapolis Center
23:52 41.5022 -93.3142 255° West 261 300 4,400 -1,140 Descending Minneapolis Center
23:53 41.5042 -93.3642 273° West 257 296 3,800 -1,020 Descending Minneapolis Center
23:53 41.4950 -93.4136 256° West 252 290 3,400 -840 Descending Minneapolis Center
23:54 41.4964 -93.4511 273° West 247 284 3,000 -420 Descending Minneapolis Center
23:54 41.4889 -93.4997 258° West 237 273 3,000  Level Minneapolis Center